Date,TemperatureHighF,TemperatureAvgF,TemperatureLowF,DewpointHighF,DewpointAvgF,DewpointLowF,HumidityHigh,HumidityAvg,HumidityLow,PressureMaxIn,PressureMinIn,WindSpeedMaxMPH,WindSpeedAvgMPH,GustSpeedMaxMPH,PrecipitationSumIn
2013-2-1,-6,-9,-10,-14,-16,-17,71,70,69,29.66,29.61,8,2,8,0.00
2013-2-2,30,11,4,14,3,-2,77,71,46,29.51,29.38,5,0,5,0.00
2013-2-3,25,14,5,10,5,-1,79,68,49,29.43,29.31,15,3,15,0.00
2013-2-4,34,17,2,13,3,-5,83,57,38,29.41,29.23,5,0,5,0.00
2013-2-5,36,24,2,26,16,-3,85,73,64,29.43,29.06,12,2,12,0.00
2013-2-6,38,20,-2,26,13,-7,83,76,60,29.46,29.26,8,1,10,0.00
2013-2-7,29,26,20,24,21,16,86,81,77,29.58,29.30,7,0,7,0.00
2013-2-8,33,25,23,21,18,16,80,74,60,29.71,29.56,11,2,11,0.00
2013-2-9,35,29,26,28,24,20,84,80,74,29.57,29.27,17,7,17,0.00
2013-2-10,36,32,29,32,29,24,89,87,83,29.28,28.62,18,3,18,0.05
2013-2-11,32,26,17,30,20,10,89,78,65,29.40,28.70,21,5,21,0.00
2013-2-12,48,28,15,30,19,10,83,71,49,29.40,29.17,10,2,10,0.04
2013-2-13,48,31,16,33,23,12,86,75,54,29.18,28.92,7,0,7,0.04
2013-2-14,38,24,13,30,15,4,87,70,59,29.52,28.93,6,0,6,0.00
2013-2-15,32,13,3,11,2,-3,77,63,39,29.64,29.52,10,2,10,0.00
2013-2-16,40,12,2,22,3,-4,79,67,42,29.60,29.44,3,0,3,0.00
2013-2-17,41,24,3,24,15,-3,80,69,48,29.45,28.98,13,2,13,0.00
2013-2-18,35,23,6,30,16,-1,81,74,66,29.17,28.90,20,8,20,0.00
2013-2-19,17,5,-5,0,-5,-13,76,63,42,29.70,29.17,16,5,16,0.00
2013-2-20,31,7,-10,9,-4,-17,74,61,37,29.79,29.69,7,0,7,0.00
2013-2-21,26,14,1,11,5,-6,78,67,52,29.76,29.38,10,1,10,0.00
2013-2-22,35,25,18,22,18,11,84,75,59,29.39,29.20,7,0,7,0.08
2013-2-23,37,20,7,24,13,1,82,75,58,29.32,29.21,8,2,25,0.00
2013-2-24,57,17,-4,32,7,-10,83,67,36,29.44,29.31,6,0,6,0.02
2013-2-25,52,28,10,33,18,4,78,67,48,29.45,29.38,0,0,0,0.00
2013-2-26,46,27,8,29,20,2,85,73,51,29.39,29.20,10,2,10,0.00
2013-2-27,43,32,26,29,24,20,80,71,53,29.36,29.20,9,2,9,0.00
2013-2-28,34,29,24,23,21,16,78,70,61,29.54,29.36,8,1,8,0.00